< < Back
Terminal Aerodrome Forecast


Current Version              Previous Versions:   1  2  3  4  5  6  7  8  9  

Terminal Aerodrome Forecast

969
FTUS44 KMOB 300214 AAA
TAFMOB
TAF AMD
KMOB 300214Z 3002/3024 06005KT P6SM SCT250
     FM300400 VRB02KT P6SM SKC
     FM301500 06009KT P6SM FEW250=

Latest METAR

802
SAUS80 KWBC 301800 RRA
MTRMOB
METAR KMOB 301756Z 05012G17KT 10SM BKN040 32/21 A2998 RMK AO2 SLP147
T03170211 10328 20239 58005


USA.gov is the U.S. government's official web portal to all federal, state and local government web resources and services.